Map

Track Data

SID SEASON NUMBER BASIN SUBBASIN NAME ISO_TIME NATURE LAT LON WMO_WIND WMO_PRES WMO_AGENCY TRACK_TYPE DIST2LAND LANDFALL IFLAG USA_AGENCY USA_ATCF_ID USA_LAT USA_LON USA_RECORD USA_STATUS USA_WIND USA_PRES USA_SSHS USA_R34_NE USA_R34_SE USA_R34_SW USA_R34_NW USA_R50_NE USA_R50_SE USA_R50_SW USA_R50_NW USA_R64_NE USA_R64_SE USA_R64_SW USA_R64_NW USA_POCI USA_ROCI USA_RMW USA_EYE TOKYO_LAT TOKYO_LON TOKYO_GRADE TOKYO_WIND TOKYO_PRES TOKYO_R50_DIR TOKYO_R50_LONG TOKYO_R50_SHORT TOKYO_R30_DIR TOKYO_R30_LONG TOKYO_R30_SHORT TOKYO_LAND CMA_LAT CMA_LON CMA_CAT CMA_WIND CMA_PRES HKO_LAT HKO_LON HKO_CAT HKO_WIND HKO_PRES NEWDELHI_LAT NEWDELHI_LON NEWDELHI_GRADE NEWDELHI_WIND NEWDELHI_PRES NEWDELHI_CI NEWDELHI_DP NEWDELHI_POCI REUNION_LAT REUNION_LON REUNION_TYPE REUNION_WIND REUNION_PRES REUNION_TNUM REUNION_CI REUNION_RMW REUNION_R34_NE REUNION_R34_SE REUNION_R34_SW REUNION_R34_NW REUNION_R50_NE REUNION_R50_SE REUNION_R50_SW REUNION_R50_NW REUNION_R64_NE REUNION_R64_SE REUNION_R64_SW REUNION_R64_NW BOM_LAT BOM_LON BOM_TYPE BOM_WIND BOM_PRES BOM_TNUM BOM_CI BOM_RMW BOM_R34_NE BOM_R34_SE BOM_R34_SW BOM_R34_NW BOM_R50_NE BOM_R50_SE BOM_R50_SW BOM_R50_NW BOM_R64_NE BOM_R64_SE BOM_R64_SW BOM_R64_NW BOM_ROCI BOM_POCI BOM_EYE BOM_POS_METHOD BOM_PRES_METHOD NADI_LAT NADI_LON NADI_CAT NADI_WIND NADI_PRES WELLINGTON_LAT WELLINGTON_LON WELLINGTON_WIND WELLINGTON_PRES DS824_LAT DS824_LON DS824_STAGE DS824_WIND DS824_PRES TD9636_LAT TD9636_LON TD9636_STAGE TD9636_WIND TD9636_PRES TD9635_LAT TD9635_LON TD9635_WIND TD9635_PRES TD9635_ROCI NEUMANN_LAT NEUMANN_LON NEUMANN_CLASS NEUMANN_WIND NEUMANN_PRES MLC_LAT MLC_LON MLC_CLASS MLC_WIND MLC_PRES USA_GUST BOM_GUST BOM_GUST_PER REUNION_GUST REUNION_GUST_PER USA_SEAHGT USA_SEARAD_NE USA_SEARAD_SE USA_SEARAD_SW USA_SEARAD_NW STORM_SPEED STORM_DIR
2022271N22132 2022 65 WP MM ROKE 2022-09-28 06:00:00 NR 21.9000 132.200 PROVISIONAL 1027 956 O_____________ tcvitals WP202022 21.9000 132.200 29 1002 -1 1006 126 40 14 337
2022271N22132 2022 65 WP MM ROKE 2022-09-28 09:00:00 NR 22.5477 131.901 PROVISIONAL 956 887 P_____________ WP202022 22.5477 131.901 32 1002 -1 1006 126 35 13 339
2022271N22132 2022 65 WP MM ROKE 2022-09-28 12:00:00 NR 23.1000 131.700 PROVISIONAL 887 843 O_____________ tcvitals WP202022 23.1000 131.700 35 1003 0 55 45 1006 126 30 10 347
2022271N22132 2022 65 WP MM ROKE 2022-09-28 15:00:00 NR 23.5074 131.662 PROVISIONAL 843 798 P_____________ WP202022 23.5074 131.662 40 1000 0 60 45 1006 126 30 8 1
2022271N22132 2022 65 WP MM ROKE 2022-09-28 18:00:00 NR 23.9000 131.700 PROVISIONAL 798 743 O_____________ tcvitals WP202022 23.9000 131.700 45 997 0 65 35 45 45 1006 126 30 9 0
2022271N22132 2022 65 WP MM ROKE 2022-09-28 21:00:00 NR 24.4499 131.663 PROVISIONAL 743 677 P_____________ WP202022 24.4499 131.663 49 993 0 62 32 37 45 1006 126 22 11 0
2022271N22132 2022 65 WP MM ROKE 2022-09-29 00:00:00 NR 25.0000 131.700 PROVISIONAL 677 634 O_____________ tcvitals WP202022 25.0000 131.700 54 990 0 60 30 30 45 1006 126 14 10 12
2022271N22132 2022 65 WP MM ROKE 2022-09-29 03:00:00 NR 25.4149 131.883 PROVISIONAL 636 598 P_____________ WP202022 25.4149 131.883 62 987 0 80 45 40 45 1006 126 9 9 29
2022271N22132 2022 65 WP MM ROKE 2022-09-29 06:00:00 NR 25.8000 132.200 PROVISIONAL 598 563 O_____________ tcvitals WP202022 25.8000 132.200 70 985 1 100 60 50 45 1006 126 5 11 37
2022271N22132 2022 65 WP MM ROKE 2022-09-29 09:00:00 NR 26.2724 132.605 PROVISIONAL 556 529 P_____________ WP202022 26.2724 132.605 77 980 1 102 67 55 47 1009 130 5 12 42
2022271N22132 2022 65 WP MM ROKE 2022-09-29 12:00:00 NR 26.7000 133.100 PROVISIONAL 533 527 O_____________ tcvitals WP202022 26.7000 133.100 84 975 2 105 75 60 50 1012 135 5 11 54
2022271N22132 2022 65 WP MM ROKE 2022-09-29 15:00:00 NR 26.9423 133.621 PROVISIONAL 537 533 P_____________ WP202022 26.9423 133.621 79 977 1 100 87 75 62 1012 145 7 11 63
2022271N22132 2022 65 WP MM ROKE 2022-09-29 18:00:00 NR 27.2000 134.200 PROVISIONAL 541 528 O_____________ tcvitals WP202022 27.2000 134.200 74 979 1 95 100 90 75 1012 155 10 12 54
2022271N22132 2022 65 WP MM ROKE 2022-09-29 21:00:00 NR 27.6609 134.754 PROVISIONAL 527 520 P_____________ WP202022 27.6609 134.754 69 983 1 77 80 70 60 1012 155 10 15 49
2022271N22132 2022 65 WP MM ROKE 2022-09-30 00:00:00 NR 28.2000 135.500 PROVISIONAL 532 528 O_____________ tcvitals WP202022 28.2000 135.500 64 988 1 60 60 50 45 1012 155 10 19 58
2022271N22132 2022 65 WP MM ROKE 2022-09-30 03:00:00 NR 28.7006 136.610 PROVISIONAL 529 505 P_____________ WP202022 28.7006 136.610 62 989 0 60 60 50 42 1012 152 10 23 65
2022271N22132 2022 65 WP MM ROKE 2022-09-30 06:00:00 NR 29.2000 137.900 PROVISIONAL 509 502 O_____________ tcvitals WP202022 29.2000 137.900 60 991 0 60 60 50 40 1012 150 10 25 65
2022271N22132 2022 65 WP MM ROKE 2022-09-30 09:00:00 NR 29.7448 139.172 PROVISIONAL 523 510 P_____________ WP202022 29.7448 139.172 57 992 0 60 57 45 37 1012 150 12 24 65
2022271N22132 2022 65 WP MM ROKE 2022-09-30 12:00:00 NR 30.2000 140.400 PROVISIONAL 513 511 O_____________ tcvitals WP202022 30.2000 140.400 54 994 0 60 55 40 35 1013 150 14 21 72
2022271N22132 2022 65 WP MM ROKE 2022-09-30 15:00:00 NR 30.3837 141.499 PROVISIONAL 523 523 P_____________ WP202022 30.3837 141.499 54 995 0 55 65 40 35 1012 160 17 19 78
2022271N22132 2022 65 WP MM ROKE 2022-09-30 18:00:00 NR 30.6000 142.500 PROVISIONAL 537 528 O_____________ tcvitals WP202022 30.6000 142.500 54 996 0 50 75 40 35 1012 170 20 18 66
2022271N22132 2022 65 WP MM ROKE 2022-09-30 21:00:00 NR 31.1312 143.450 PROVISIONAL 540 523 P_____________ WP202022 31.1312 143.450 54 995 0 55 65 40 32 1012 170 20 20 54
2022271N22132 2022 65 WP MM ROKE 2022-10-01 00:00:00 NR 31.8000 144.400 PROVISIONAL 529 528 O_____________ tcvitals WP202022 31.8000 144.400 54 995 0 60 55 40 30 1012 170 20 22 52
2022271N22132 2022 65 WP MM ROKE 2022-10-01 03:00:00 NR 32.4647 145.443 PROVISIONAL 545 545 P_____________ WP202022 32.4647 145.443 54 994 0 70 57 40 30 1012 170 25 22 54
2022271N22132 2022 65 WP MM ROKE 2022-10-01 06:00:00 NR 33.1000 146.500 PROVISIONAL 588 588 O_____________ tcvitals WP202022 33.1000 146.500 54 994 0 80 60 40 30 1012 170 30 21 57
2022271N22132 2022 65 WP MM ROKE 2022-10-01 09:00:00 NR 33.5995 147.532 PROVISIONAL 646 646 P_____________ WP202022 33.5995 147.532 57 991 0 100 65 40 67 1012 170 25 19 59
2022271N22132 2022 65 WP MM ROKE 2022-10-01 12:00:00 NR 34.1000 148.500 PROVISIONAL 713 713 O_____________ tcvitals WP202022 34.1000 148.500 60 989 0 120 70 40 105 1012 170 20 19 52
2022271N22132 2022 65 WP MM ROKE 2022-10-01 15:00:00 NR 34.7554 149.329 PROVISIONAL 767 767 P_____________ WP202022 34.7554 149.329 60 988 0 120 70 40 105 1012 170 20 19 47
2022271N22132 2022 65 WP MM ROKE 2022-10-01 18:00:00 NR 35.4000 150.200 PROVISIONAL 836 836 O_____________ tcvitals WP202022 35.4000 150.200 60 988 0 120 70 40 105 1012 170 20 20 55
2022271N22132 2022 65 WP MM ROKE 2022-10-01 21:00:00 NR 35.8953 151.313 PROVISIONAL 900 900 P_____________ WP202022 35.8953 151.313 57 990 0 120 70 40 105 1012 170 20 21 64
2022271N22132 2022 65 WP MM ROKE 2022-10-02 00:00:00 NR 36.3000 152.500 PROVISIONAL 971 971 O_____________ tcvitals WP202022 36.3000 152.500 54 992 0 120 70 40 105 1013 170 20 21 67
2022271N22132 2022 65 WP MM ROKE 2022-10-02 03:00:00 NR 36.7100 153.659 PROVISIONAL 1003 1001 P_____________ WP202022 36.7100 153.659 54 990 0 123 98 67 102 1012 185 27 19 68
2022271N22132 2022 65 WP MM ROKE 2022-10-02 06:00:00 NR 37.0000 154.700 PROVISIONAL 1040 1040 O_____________ tcvitals WP202022 37.0000 154.700 54 989 0 126 126 95 100 1012 200 35 15 76
2022271N22132 2022 65 WP MM ROKE 2022-10-02 09:00:00 NR 37.0936 155.519 PROVISIONAL 1060 1060 P_____________ WP202022 37.0936 155.519 54 988 0 143 126 107 125 1012 200 30 12 85
2022271N22132 2022 65 WP MM ROKE 2022-10-02 12:00:00 NR 37.1000 156.200 PROVISIONAL 1088 1088 O_____________ tcvitals WP202022 37.1000 156.200 54 987 0 160 126 120 150 1012 200 25 11 85
2022271N22132 2022 65 WP MM ROKE 2022-10-02 15:00:00 NR 37.1876 156.917 PROVISIONAL 1108 1108 P_____________ WP202022 37.1876 156.917 52 987 0 160 126 120 150 1011 185 25 10 84
2022271N22132 2022 65 WP MM ROKE 2022-10-02 18:00:00 NR 37.2000 157.500 PROVISIONAL 1136 1136 O_____________ tcvitals WP202022 37.2000 157.500 51 988 0 160 126 120 150 1011 170 25 8 105
2022271N22132 2022 65 WP MM ROKE 2022-10-02 21:00:00 NR 36.9992 157.831 PROVISIONAL 1169 1169 P_____________ WP202022 36.9992 157.831 51 988 0 160 126 120 150 1012 195 25 6 130
2022271N22132 2022 65 WP MM ROKE 2022-10-03 00:00:00 NR 36.8000 158.100 PROVISIONAL 1202 1202 O_____________ tcvitals WP202022 36.8000 158.100 51 989 0 160 126 120 150 1013 220 25 6 108
2022271N22132 2022 65 WP MM ROKE 2022-10-03 03:00:00 NR 36.8085 158.551 PROVISIONAL 1226 1226 P_____________ WP202022 36.8085 158.551 45 992 0 160 115 145 1013 222 35 7 82
2022271N22132 2022 65 WP MM ROKE 2022-10-03 06:00:00 NR 36.9000 159.000 PROVISIONAL 1238 1238 O_____________ tcvitals WP202022 36.9000 159.000 39 995 0 160 110 140 1014 225 45 6 76
2022271N22132 2022 65 WP MM ROKE 2022-10-03 09:00:00 NR 36.9682 159.332 PROVISIONAL 1244 1244 P_____________ WP202022 36.9682 159.332 -5 5 71
2022271N22132 2022 65 WP MM ROKE 2022-10-03 12:00:00 NR 37.0575 159.578 PROVISIONAL 1252 1248 O_____________ tcvitals WP202022 37.0575 159.578 -5 4 59
2022271N22132 2022 65 WP MM ROKE 2022-10-03 15:00:00 NR 37.1700 159.759 PROVISIONAL 1253 1250 P_____________ WP202022 37.1700 159.759 -5 4 48
2022271N22132 2022 65 WP MM ROKE 2022-10-03 18:00:00 NR 37.2956 159.906 PROVISIONAL 1250 O_____________ tcvitals WP202022 37.2956 159.906 -5 3 43

Digital Typhoon Data and Search

About IBTrACS Database

This database is a web-friendly format of International Best Track Archive for Climate Stewardship (IBTrACS), a global best track data archive curated by NOAA dating back to 1842.

Updated: 2022-11-16